Kineimaru No.128 — JHQS — position and weather

sailwx.info

Track history (hours):
 
Tides and Currents Weather Stations Pressure Air Temp Water Temp Dewpoint Dewpoint Depression Visibility Wind Speed Wind Dir Waves Ship Positions

Kineimaru No.128

Last reported at 2017-Sep-24 22:18 UTC. Time now 2017-Oct-17 18:54 UTC.
Position N 34°06' W 015°17'.
Warning: this ship's position is 22 days out of date.

Length 59 m; draft 4 m.

Type: Fishing. MMSI: 432367000.

Date/timePositionNaut miles runAvg speedWind from/ knotsBaromVisibWave heightAir tempDewpointWater temp
2017-Sep-24 22:18N 34°06' W 015°17'411.9
2017-Sep-24 22:01N 34°03' W 015°17'712.0
2017-Sep-24 21:25N 33°56' W 015°17'512.0
2017-Sep-24 21:00N 33°51' W 015°17'611.9
2017-Sep-24 20:30N 33°45' W 015°17'611.9
2017-Sep-24 19:59N 33°38' W 015°16'611.7
2017-Sep-24 19:30N 33°33' W 015°16'611.7
2017-Sep-24 18:58N 33°27' W 015°16'911.4
2017-Sep-24 18:12N 33°18' W 015°16'611.3
2017-Sep-24 17:39N 33°12' W 015°16'311.2
2017-Sep-24 17:23N 33°09' W 015°16'411.2
2017-Sep-24 17:00N 33°04' W 015°16'611.3
2017-Sep-24 16:29N 32°59' W 015°16'511.2
2017-Sep-24 16:00N 32°53' W 015°16'611.4
2017-Sep-24 15:30N 32°47' W 015°16'611.2
2017-Sep-24 15:00N 32°42' W 015°16'811.1
2017-Sep-24 14:18N 32°34' W 015°15'311.0
2017-Sep-24 14:00N 32°31' W 015°15'610.9
2017-Sep-24 13:29N 32°25' W 015°15'510.9
2017-Sep-24 13:01N 32°20' W 015°15'510.7
2017-Sep-24 12:30N 32°14' W 015°15'810.9
2017-Sep-24 11:46N 32°06' W 015°15'611.0
2017-Sep-24 11:16N 32°01' W 015°15'310.9
2017-Sep-24 11:00N 31°58' W 015°15'2210.7
2017-Sep-24 08:59N 31°36' W 015°15'510.2
2017-Sep-24 08:30N 31°31' W 015°15'510.1
2017-Sep-24 07:59N 31°26' W 015°15'510.0
2017-Sep-24 07:30N 31°21' W 015°15'610.1
2017-Sep-24 06:55N 31°16' W 015°16'510.3
2017-Sep-24 06:29N 31°11' W 015°16'6110.0
2017-Sep-24 00:20N 30°10' W 015°16'3 9.6
2017-Sep-23 23:59N 30°06' W 015°17'19 9.5
2017-Sep-23 21:57N 29°47' W 015°17'13 9.3
2017-Sep-23 20:35N 29°34' W 015°18'1 9.5
2017-Sep-23 20:30N 29°33' W 015°18'85 2.0
2017-Sep-22 02:00N 28°09' W 015°25'0 0.0
2017-Sep-22 01:30N 28°09' W 015°25'0 0.0
2017-Sep-22 01:01N 28°09' W 015°25'0 0.0
2017-Sep-22 00:30N 28°09' W 015°25'0 0.0
2017-Sep-22 00:01N 28°09' W 015°25'0 0.0
2017-Sep-21 23:30N 28°09' W 015°25'0 0.0
2017-Sep-21 23:01N 28°09' W 015°25'0 0.0
2017-Sep-21 22:30N 28°09' W 015°25'0 0.0
2017-Sep-21 22:01N 28°09' W 015°25'0 0.0
2017-Sep-21 21:30N 28°09' W 015°25'0 0.0
2017-Sep-21 21:00N 28°09' W 015°25'0 0.0
2017-Sep-21 20:30N 28°09' W 015°25'0 0.0
2017-Sep-21 20:00N 28°09' W 015°25'0 0.0
2017-Sep-21 19:30N 28°09' W 015°25'0 0.0
2017-Sep-21 19:00N 28°09' W 015°25'0 0.0
2017-Sep-21 18:30N 28°09' W 015°25'0 0.0
2017-Sep-21 18:00N 28°09' W 015°25'0 0.0
2017-Sep-21 17:30N 28°09' W 015°25'0 0.0
2017-Sep-21 17:00N 28°09' W 015°25'0 0.0
2017-Sep-21 16:30N 28°09' W 015°25'0 0.0
2017-Sep-21 16:00N 28°09' W 015°25'0 0.0
2017-Sep-21 15:30N 28°09' W 015°25'0 0.0
2017-Sep-21 15:00N 28°09' W 015°25'0 0.0
2017-Sep-21 14:30N 28°09' W 015°25'0 0.0
2017-Sep-21 14:00N 28°09' W 015°25'0 0.0
2017-Sep-21 13:30N 28°09' W 015°25'0 0.0
2017-Sep-21 13:00N 28°09' W 015°25'0 0.0
2017-Sep-21 12:30N 28°09' W 015°25'0 0.0
2017-Sep-21 12:00N 28°09' W 015°25'0 0.0
2017-Sep-21 11:30N 28°09' W 015°25'0 0.0
2017-Sep-21 11:01N 28°09' W 015°25'0 0.0
2017-Sep-21 10:30N 28°09' W 015°25'0 0.0
2017-Sep-21 10:00N 28°09' W 015°25'0 0.0
2017-Sep-21 09:30N 28°09' W 015°25'0 0.0
2017-Sep-21 09:00N 28°09' W 015°25'0 0.0
2017-Sep-21 08:30N 28°09' W 015°25'0 0.0
2017-Sep-21 08:00N 28°09' W 015°25'0 0.0
2017-Sep-21 07:30N 28°09' W 015°25'0 0.0
2017-Sep-21 07:00N 28°09' W 015°25'0 0.0
2017-Sep-21 06:31N 28°09' W 015°25'0 0.0
2017-Sep-21 06:00N 28°09' W 015°25'0 0.0
2017-Sep-21 05:31N 28°09' W 015°25'0 0.0
2017-Sep-21 05:01N 28°09' W 015°25'0 0.0
2017-Sep-21 04:30N 28°09' W 015°25'0 0.0
2017-Sep-21 04:00N 28°09' W 015°25'0 0.0
2017-Sep-21 03:30N 28°09' W 015°25'0 0.0
2017-Sep-21 03:00N 28°09' W 015°25'0 0.0
2017-Sep-21 02:30N 28°09' W 015°25'0 0.0
2017-Sep-21 02:00N 28°09' W 015°25'0 0.0
2017-Sep-21 01:30N 28°09' W 015°25'0 0.0
2017-Sep-21 01:00N 28°09' W 015°25'0 0.0
2017-Sep-21 00:30N 28°09' W 015°25'0 0.0
2017-Sep-21 00:00N 28°09' W 015°25'0 0.0
2017-Sep-20 23:30N 28°09' W 015°25'0 0.0
2017-Sep-20 23:00N 28°09' W 015°25'0 0.0
2017-Sep-20 22:30N 28°09' W 015°25'0 0.0
2017-Sep-20 22:00N 28°09' W 015°25'0 0.0
2017-Sep-20 21:30N 28°09' W 015°25'0 0.0
2017-Sep-20 21:01N 28°09' W 015°25'0 0.0
2017-Sep-20 20:30N 28°09' W 015°25'0 0.0
2017-Sep-20 20:00N 28°09' W 015°25'0 0.0
2017-Sep-20 19:30N 28°09' W 015°25'0 0.0
2017-Sep-20 19:00N 28°09' W 015°25'0 0.0
2017-Sep-20 18:30N 28°09' W 015°25'0 0.0
2017-Sep-20 18:00N 28°09' W 015°25'0 0.0
2017-Sep-20 17:30N 28°09' W 015°25'0 0.0
2017-Sep-20 17:00N 28°09' W 015°25'0 0.0
2017-Sep-20 16:30N 28°09' W 015°25'0 0.0
2017-Sep-20 16:00N 28°09' W 015°25'0 0.0
2017-Sep-20 15:30N 28°09' W 015°25'0 0.0
2017-Sep-20 15:01N 28°09' W 015°25'0 0.0
2017-Sep-20 14:00N 28°09' W 015°25'0 0.0
2017-Sep-20 13:30N 28°09' W 015°25'0 0.0
2017-Sep-20 13:00N 28°09' W 015°25'0 0.0
2017-Sep-20 12:30N 28°09' W 015°25'0 0.0
2017-Sep-20 12:00N 28°09' W 015°25'0 0.0
2017-Sep-20 11:30N 28°09' W 015°25'0 0.0
2017-Sep-20 11:00N 28°09' W 015°25'0 0.0
2017-Sep-20 10:30N 28°09' W 015°25'0 0.0
2017-Sep-20 10:00N 28°09' W 015°25'0 0.0
2017-Sep-20 09:30N 28°09' W 015°25'0 0.0
2017-Sep-20 09:00N 28°09' W 015°25'0 0.0
2017-Sep-20 08:30N 28°09' W 015°25'0 0.0
2017-Sep-20 08:00N 28°09' W 015°25'0 0.0
2017-Sep-20 07:30N 28°09' W 015°25'1 2.8
2017-Sep-20 07:00N 28°07' W 015°25'3 6.1
2017-Sep-20 06:31N 28°07' W 015°21'4 7.0
2017-Sep-20 06:00N 28°04' W 015°19'4 8.7
2017-Sep-20 05:31N 28°00' W 015°16'510.5
2017-Sep-20 05:00N 27°55' W 015°17'5 9.9
2017-Sep-20 04:30N 27°50' W 015°18'  
Track history (hours):
 
Tides and Currents Weather Stations Pressure Air Temp Water Temp Dewpoint Dewpoint Depression Visibility Wind Speed Wind Dir Waves Ship Positions

Kineimaru No.128

Last reported at 2017-Sep-24 22:18 UTC. Time now 2017-Oct-17 18:54 UTC.
Position N 34°06' W 015°17'.
Warning: this ship's position is 22 days out of date.

Length 59 m; draft 4 m.

Type: Fishing. MMSI: 432367000.

Date/timePositionNaut miles runAvg speedWind from/ knotsBaromVisibWave heightAir tempDewpointWater temp
2017-Sep-24 22:18N 34°06' W 015°17'411.9
2017-Sep-24 22:01N 34°03' W 015°17'712.0
2017-Sep-24 21:25N 33°56' W 015°17'512.0
2017-Sep-24 21:00N 33°51' W 015°17'611.9
2017-Sep-24 20:30N 33°45' W 015°17'611.9
2017-Sep-24 19:59N 33°38' W 015°16'611.7
2017-Sep-24 19:30N 33°33' W 015°16'611.7
2017-Sep-24 18:58N 33°27' W 015°16'911.4
2017-Sep-24 18:12N 33°18' W 015°16'611.3
2017-Sep-24 17:39N 33°12' W 015°16'311.2
2017-Sep-24 17:23N 33°09' W 015°16'411.2
2017-Sep-24 17:00N 33°04' W 015°16'611.3
2017-Sep-24 16:29N 32°59' W 015°16'511.2
2017-Sep-24 16:00N 32°53' W 015°16'611.4
2017-Sep-24 15:30N 32°47' W 015°16'611.2
2017-Sep-24 15:00N 32°42' W 015°16'811.1
2017-Sep-24 14:18N 32°34' W 015°15'311.0
2017-Sep-24 14:00N 32°31' W 015°15'610.9
2017-Sep-24 13:29N 32°25' W 015°15'510.9
2017-Sep-24 13:01N 32°20' W 015°15'510.7
2017-Sep-24 12:30N 32°14' W 015°15'810.9
2017-Sep-24 11:46N 32°06' W 015°15'611.0
2017-Sep-24 11:16N 32°01' W 015°15'310.9
2017-Sep-24 11:00N 31°58' W 015°15'2210.7
2017-Sep-24 08:59N 31°36' W 015°15'510.2
2017-Sep-24 08:30N 31°31' W 015°15'510.1
2017-Sep-24 07:59N 31°26' W 015°15'510.0
2017-Sep-24 07:30N 31°21' W 015°15'610.1
2017-Sep-24 06:55N 31°16' W 015°16'510.3
2017-Sep-24 06:29N 31°11' W 015°16'6110.0
2017-Sep-24 00:20N 30°10' W 015°16'3 9.6
2017-Sep-23 23:59N 30°06' W 015°17'19 9.5
2017-Sep-23 21:57N 29°47' W 015°17'13 9.3
2017-Sep-23 20:35N 29°34' W 015°18'1 9.5
2017-Sep-23 20:30N 29°33' W 015°18'85 2.0
2017-Sep-22 02:00N 28°09' W 015°25'0 0.0
2017-Sep-22 01:30N 28°09' W 015°25'0 0.0
2017-Sep-22 01:01N 28°09' W 015°25'0 0.0
2017-Sep-22 00:30N 28°09' W 015°25'0 0.0
2017-Sep-22 00:01N 28°09' W 015°25'0 0.0
2017-Sep-21 23:30N 28°09' W 015°25'0 0.0
2017-Sep-21 23:01N 28°09' W 015°25'0 0.0
2017-Sep-21 22:30N 28°09' W 015°25'0 0.0
2017-Sep-21 22:01N 28°09' W 015°25'0 0.0
2017-Sep-21 21:30N 28°09' W 015°25'0 0.0
2017-Sep-21 21:00N 28°09' W 015°25'0 0.0
2017-Sep-21 20:30N 28°09' W 015°25'0 0.0
2017-Sep-21 20:00N 28°09' W 015°25'0 0.0
2017-Sep-21 19:30N 28°09' W 015°25'0 0.0
2017-Sep-21 19:00N 28°09' W 015°25'0 0.0
2017-Sep-21 18:30N 28°09' W 015°25'0 0.0
2017-Sep-21 18:00N 28°09' W 015°25'0 0.0
2017-Sep-21 17:30N 28°09' W 015°25'0 0.0
2017-Sep-21 17:00N 28°09' W 015°25'0 0.0
2017-Sep-21 16:30N 28°09' W 015°25'0 0.0
2017-Sep-21 16:00N 28°09' W 015°25'0 0.0
2017-Sep-21 15:30N 28°09' W 015°25'0 0.0
2017-Sep-21 15:00N 28°09' W 015°25'0 0.0
2017-Sep-21 14:30N 28°09' W 015°25'0 0.0
2017-Sep-21 14:00N 28°09' W 015°25'0 0.0
2017-Sep-21 13:30N 28°09' W 015°25'0 0.0
2017-Sep-21 13:00N 28°09' W 015°25'0 0.0
2017-Sep-21 12:30N 28°09' W 015°25'0 0.0
2017-Sep-21 12:00N 28°09' W 015°25'0 0.0
2017-Sep-21 11:30N 28°09' W 015°25'0 0.0
2017-Sep-21 11:01N 28°09' W 015°25'0 0.0
2017-Sep-21 10:30N 28°09' W 015°25'0 0.0
2017-Sep-21 10:00N 28°09' W 015°25'0 0.0
2017-Sep-21 09:30N 28°09' W 015°25'0 0.0
2017-Sep-21 09:00N 28°09' W 015°25'0 0.0
2017-Sep-21 08:30N 28°09' W 015°25'0 0.0
2017-Sep-21 08:00N 28°09' W 015°25'0 0.0
2017-Sep-21 07:30N 28°09' W 015°25'0 0.0
2017-Sep-21 07:00N 28°09' W 015°25'0 0.0
2017-Sep-21 06:31N 28°09' W 015°25'0 0.0
2017-Sep-21 06:00N 28°09' W 015°25'0 0.0
2017-Sep-21 05:31N 28°09' W 015°25'0 0.0
2017-Sep-21 05:01N 28°09' W 015°25'0 0.0
2017-Sep-21 04:30N 28°09' W 015°25'0 0.0
2017-Sep-21 04:00N 28°09' W 015°25'0 0.0
2017-Sep-21 03:30N 28°09' W 015°25'0 0.0
2017-Sep-21 03:00N 28°09' W 015°25'0 0.0
2017-Sep-21 02:30N 28°09' W 015°25'0 0.0
2017-Sep-21 02:00N 28°09' W 015°25'0 0.0
2017-Sep-21 01:30N 28°09' W 015°25'0 0.0
2017-Sep-21 01:00N 28°09' W 015°25'0 0.0
2017-Sep-21 00:30N 28°09' W 015°25'0 0.0
2017-Sep-21 00:00N 28°09' W 015°25'0 0.0
2017-Sep-20 23:30N 28°09' W 015°25'0 0.0
2017-Sep-20 23:00N 28°09' W 015°25'0 0.0
2017-Sep-20 22:30N 28°09' W 015°25'0 0.0
2017-Sep-20 22:00N 28°09' W 015°25'0 0.0
2017-Sep-20 21:30N 28°09' W 015°25'0 0.0
2017-Sep-20 21:01N 28°09' W 015°25'0 0.0
2017-Sep-20 20:30N 28°09' W 015°25'0 0.0
2017-Sep-20 20:00N 28°09' W 015°25'0 0.0
2017-Sep-20 19:30N 28°09' W 015°25'0 0.0
2017-Sep-20 19:00N 28°09' W 015°25'0 0.0
2017-Sep-20 18:30N 28°09' W 015°25'0 0.0
2017-Sep-20 18:00N 28°09' W 015°25'0 0.0
2017-Sep-20 17:30N 28°09' W 015°25'0 0.0
2017-Sep-20 17:00N 28°09' W 015°25'0 0.0
2017-Sep-20 16:30N 28°09' W 015°25'0 0.0
2017-Sep-20 16:00N 28°09' W 015°25'0 0.0
2017-Sep-20 15:30N 28°09' W 015°25'0 0.0
2017-Sep-20 15:01N 28°09' W 015°25'0 0.0
2017-Sep-20 14:00N 28°09' W 015°25'0 0.0
2017-Sep-20 13:30N 28°09' W 015°25'0 0.0
2017-Sep-20 13:00N 28°09' W 015°25'0 0.0
2017-Sep-20 12:30N 28°09' W 015°25'0 0.0
2017-Sep-20 12:00N 28°09' W 015°25'0 0.0
2017-Sep-20 11:30N 28°09' W 015°25'0 0.0
2017-Sep-20 11:00N 28°09' W 015°25'0 0.0
2017-Sep-20 10:30N 28°09' W 015°25'0 0.0
2017-Sep-20 10:00N 28°09' W 015°25'0 0.0
2017-Sep-20 09:30N 28°09' W 015°25'0 0.0
2017-Sep-20 09:00N 28°09' W 015°25'0 0.0
2017-Sep-20 08:30N 28°09' W 015°25'0 0.0
2017-Sep-20 08:00N 28°09' W 015°25'0 0.0
2017-Sep-20 07:30N 28°09' W 015°25'1 2.8
2017-Sep-20 07:00N 28°07' W 015°25'3 6.1
2017-Sep-20 06:31N 28°07' W 015°21'4 7.0
2017-Sep-20 06:00N 28°04' W 015°19'4 8.7
2017-Sep-20 05:31N 28°00' W 015°16'510.5
2017-Sep-20 05:00N 27°55' W 015°17'5 9.9
2017-Sep-20 04:30N 27°50' W 015°18'  

Dump ship's entire track history